Time;durP1;ratioP1;P1;durP2;ratioP2;P2;SDS_P1;SDS_P2;PMS_P1;PMS_P2;Temp;Humidity;BMP_temperature;BMP_pressure;BME280_temperature;BME280_humidity;BME280_pressure;Samples;Min_cycle;Max_cycle;Signal;HPM_P1;HPM_P2
2021/11/01 00:01:06;;;;;;;15.07;2.35;;;9.70;82.40;;;;;;4969649;28;20043;-87
2021/11/01 00:03:33;;;;;;;14.55;2.53;;;9.70;82.40;;;;;;4969596;28;20054;-88
2021/11/01 00:06:00;;;;;;;13.85;2.60;;;9.70;82.40;;;;;;4956443;28;20074;-87
2021/11/01 00:08:27;;;;;;;14.77;2.33;;;9.80;82.40;;;;;;4960480;28;20504;-85
2021/11/01 00:10:54;;;;;;;10.70;1.90;;;9.70;82.30;;;;;;4958377;28;20519;-85
2021/11/01 00:13:21;;;;;;;17.30;2.17;;;9.70;82.30;;;;;;4958644;28;20397;-86
2021/11/01 00:15:48;;;;;;;14.07;2.17;;;9.70;82.30;;;;;;4959210;28;20634;-85
2021/11/01 00:18:16;;;;;;;14.15;2.30;;;9.70;82.30;;;;;;4956255;28;20042;-87
2021/11/01 00:20:44;;;;;;;13.02;2.60;;;9.70;82.30;;;;;;4973784;28;20488;-85
2021/11/01 00:23:11;;;;;;;13.57;2.72;;;9.70;82.20;;;;;;4959007;28;20050;-87
2021/11/01 00:25:37;;;;;;;14.93;3.17;;;9.70;82.20;;;;;;4970880;28;20047;-86
2021/11/01 00:28:05;;;;;;;17.17;2.75;;;9.70;82.20;;;;;;4970255;28;20046;-86
2021/11/01 00:30:32;;;;;;;18.92;3.00;;;9.60;82.20;;;;;;4956021;28;20090;-86
2021/11/01 00:32:59;;;;;;;18.42;2.38;;;9.60;82.10;;;;;;4956812;28;20051;-86
2021/11/01 00:35:26;;;;;;;14.95;2.40;;;9.60;82.10;;;;;;4959411;28;20047;-84
2021/11/01 00:37:53;;;;;;;15.50;2.58;;;9.60;82.10;;;;;;4960602;28;20050;-85
2021/11/01 00:40:20;;;;;;;16.48;2.45;;;9.60;82.10;;;;;;4959259;28;20051;-88
2021/11/01 00:42:47;;;;;;;17.88;2.30;;;9.60;82.10;;;;;;4958780;28;20121;-86
2021/11/01 00:45:15;;;;;;;13.73;3.20;;;9.60;82.10;;;;;;4955814;28;20055;-87
2021/11/01 00:47:42;;;;;;;11.43;2.47;;;9.50;82.10;;;;;;4959588;28;20047;-85
2021/11/01 00:50:09;;;;;;;13.23;2.55;;;9.50;82.10;;;;;;4958206;28;20047;-87
2021/11/01 00:52:36;;;;;;;13.25;2.40;;;9.50;82.10;;;;;;4958128;28;20059;-85
2021/11/01 00:55:06;;;;;;;15.50;2.35;;;9.50;82.10;;;;;;4960234;28;20043;-86
2021/11/01 00:57:34;;;;;;;15.57;2.97;;;9.50;82.10;;;;;;4971023;28;20054;-85
2021/11/01 01:00:01;;;;;;;20.13;2.78;;;9.50;82.10;;;;;;4971440;28;20050;-88
2021/11/01 01:02:34;;;;;;;15.25;2.25;;;9.50;82.10;;;;;;4972690;28;20054;-87
2021/11/01 01:05:03;;;;;;;16.43;2.90;;;9.50;82.10;;;;;;4960185;28;20067;-86
2021/11/01 01:07:31;;;;;;;21.48;3.17;;;9.40;82.10;;;;;;4959195;28;20464;-86
2021/11/01 01:09:58;;;;;;;14.32;2.55;;;9.40;82.10;;;;;;4963769;28;20047;-86
2021/11/01 01:12:25;;;;;;;15.30;2.65;;;9.50;82.10;;;;;;4969978;28;20455;-86
2021/11/01 01:15:02;;;;;;;14.77;2.28;;;9.40;82.10;;;;;;4968984;28;20062;-85
2021/11/01 01:17:31;;;;;;;17.48;2.72;;;9.40;82.20;;;;;;4968040;28;20051;-86
2021/11/01 01:22:29;;;;;;;12.02;2.17;;;9.40;82.20;;;;;;4966600;28;20106;-87
2021/11/01 01:27:40;;;;;;;11.90;2.80;;;9.40;82.20;;;;;;4967099;28;20132;-87
2021/11/01 01:30:08;;;;;;;16.33;2.65;;;9.40;82.20;;;;;;4969336;28;20105;-85
2021/11/01 01:32:35;;;;;;;18.65;3.30;;;9.40;82.30;;;;;;4968109;28;20047;-85
2021/11/01 01:35:03;;;;;;;18.13;3.10;;;9.30;82.30;;;;;;4966332;28;20074;-86
2021/11/01 01:37:30;;;;;;;13.35;2.67;;;9.40;82.30;;;;;;4966165;28;20042;-86
2021/11/01 01:39:57;;;;;;;22.98;3.05;;;9.40;82.30;;;;;;4965417;28;20051;-86
2021/11/01 01:42:24;;;;;;;14.05;2.63;;;9.30;82.30;;;;;;4955554;28;20448;-86
2021/11/01 01:44:51;;;;;;;16.90;2.45;;;9.30;82.30;;;;;;4968164;28;20055;-86
2021/11/01 01:47:18;;;;;;;15.50;2.80;;;9.30;82.40;;;;;;4966127;28;20463;-86
2021/11/01 01:49:47;;;;;;;18.40;2.35;;;9.30;82.40;;;;;;4965991;28;20491;-82
2021/11/01 01:52:15;;;;;;;19.35;2.55;;;9.30;82.40;;;;;;4966039;28;20046;-81
2021/11/01 01:54:42;;;;;;;15.23;2.25;;;9.20;82.40;;;;;;4967481;28;20079;-81
2021/11/01 01:57:08;;;;;;;16.27;2.60;;;9.30;82.50;;;;;;4968867;28;20055;-82
2021/11/01 01:59:35;;;;;;;13.77;2.30;;;9.30;82.50;;;;;;4967784;28;20058;-82
2021/11/01 02:02:03;;;;;;;16.63;2.05;;;9.20;82.50;;;;;;4965856;28;20054;-82
2021/11/01 02:04:30;;;;;;;18.92;3.17;;;9.30;82.60;;;;;;4965900;28;20076;-82
2021/11/01 02:07:08;;;;;;;14.25;2.72;;;9.20;82.60;;;;;;4964386;28;20043;-82
2021/11/01 02:10:00;;;;;;;16.52;2.65;;;9.20;82.60;;;;;;4968254;28;20057;-81
2021/11/01 02:12:43;;;;;;;19.58;3.15;;;9.20;82.60;;;;;;4955028;28;20467;-82
2021/11/01 02:15:37;;;;;;;12.60;2.40;;;9.20;82.70;;;;;;4969153;28;20066;-82
2021/11/01 02:18:07;;;;;;;19.98;2.65;;;9.20;82.70;;;;;;4968062;28;20503;-82
2021/11/01 02:21:00;;;;;;;16.38;2.72;;;9.20;82.70;;;;;;4967920;28;20059;-82
2021/11/01 02:23:32;;;;;;;16.33;3.05;;;9.30;82.70;;;;;;4960461;28;20110;-82
2021/11/01 02:26:01;;;;;;;16.20;2.55;;;9.20;82.70;;;;;;4965633;28;20117;-82
2021/11/01 02:28:31;;;;;;;14.70;2.85;;;9.20;82.80;;;;;;4969407;28;20042;-82
2021/11/01 02:31:00;;;;;;;15.30;2.30;;;9.20;82.80;;;;;;4969459;28;20043;-82
2021/11/01 02:33:27;;;;;;;14.48;2.42;;;9.20;82.80;;;;;;4972655;28;20046;-82
2021/11/01 02:35:54;;;;;;;15.43;3.10;;;9.20;82.80;;;;;;4972121;28;20054;-82
2021/11/01 02:38:24;;;;;;;22.00;2.42;;;9.20;82.90;;;;;;4955925;28;20055;-82
2021/11/01 02:40:52;;;;;;;17.63;2.58;;;9.20;82.90;;;;;;4965669;28;20491;-81
2021/11/01 02:43:20;;;;;;;13.88;2.80;;;9.20;82.90;;;;;;4969159;28;20043;-81
2021/11/01 02:45:47;;;;;;;14.70;2.75;;;9.20;82.90;;;;;;4973232;28;20424;-82
2021/11/01 02:48:14;;;;;;;17.88;2.53;;;9.20;82.90;;;;;;4973465;28;20058;-82
2021/11/01 02:50:41;;;;;;;22.95;3.13;;;9.20;82.90;;;;;;4970861;28;20078;-81
2021/11/01 02:53:08;;;;;;;13.73;2.40;;;9.20;82.90;;;;;;4969125;28;20055;-82
2021/11/01 02:55:35;;;;;;;12.73;2.40;;;9.20;83.00;;;;;;4967509;28;20050;-82
2021/11/01 02:58:03;;;;;;;11.32;2.05;;;9.20;83.00;;;;;;4968751;28;20134;-82
2021/11/01 03:00:31;;;;;;;20.40;2.83;;;9.20;83.00;;;;;;4970108;28;20059;-81
2021/11/01 03:02:59;;;;;;;21.70;2.63;;;9.10;83.00;;;;;;4971616;28;20674;-83
2021/11/01 03:05:28;;;;;;;18.27;2.72;;;9.20;83.00;;;;;;4970167;28;20093;-82
2021/11/01 03:07:57;;;;;;;18.50;2.67;;;9.20;83.00;;;;;;4968368;28;20043;-83
2021/11/01 03:10:26;;;;;;;20.25;2.80;;;9.20;83.00;;;;;;4968721;28;20053;-82
2021/11/01 03:12:54;;;;;;;12.73;2.10;;;9.20;83.00;;;;;;4972881;28;20097;-82
2021/11/01 03:15:24;;;;;;;16.50;2.42;;;9.20;83.00;;;;;;4955066;28;20504;-82
2021/11/01 03:17:57;;;;;;;13.90;2.83;;;9.20;83.10;;;;;;4970920;28;20057;-82
2021/11/01 03:20:28;;;;;;;17.88;2.40;;;9.10;83.10;;;;;;4969539;28;20459;-82
2021/11/01 03:22:59;;;;;;;16.70;2.58;;;9.10;83.10;;;;;;4968177;28;20050;-82
2021/11/01 03:25:37;;;;;;;19.25;3.10;;;9.10;83.10;;;;;;4967006;28;20450;-81
2021/11/01 03:28:07;;;;;;;11.10;2.47;;;9.10;83.10;;;;;;4968310;28;20077;-82
2021/11/01 03:30:35;;;;;;;15.63;2.33;;;9.10;83.10;;;;;;4970925;28;20043;-82
2021/11/01 03:33:03;;;;;;;11.20;2.45;;;9.10;83.10;;;;;;4970017;28;20054;-82
2021/11/01 03:35:31;;;;;;;13.98;2.47;;;9.10;83.10;;;;;;4959333;28;20047;-81
2021/11/01 03:38:01;;;;;;;17.75;2.72;;;9.10;83.20;;;;;;4964221;28;20507;-82
2021/11/01 03:40:32;;;;;;;16.45;2.40;;;9.10;83.20;;;;;;4967865;28;20047;-82
2021/11/01 03:43:03;;;;;;;15.07;2.90;;;9.10;83.20;;;;;;4968203;28;20054;-81
2021/11/01 03:45:33;;;;;;;16.90;2.70;;;9.10;83.20;;;;;;4970852;28;20067;-82
2021/11/01 03:48:03;;;;;;;13.15;2.10;;;9.10;83.20;;;;;;4969547;28;20051;-81
2021/11/01 03:50:45;;;;;;;18.58;3.13;;;9.10;83.20;;;;;;4959080;28;20062;-81
2021/11/01 03:53:12;;;;;;;13.85;2.13;;;9.00;83.20;;;;;;4967322;28;20051;-82
2021/11/01 03:55:39;;;;;;;13.02;2.10;;;9.10;83.20;;;;;;4967758;28;20054;-81
2021/11/01 03:58:06;;;;;;;20.52;2.88;;;9.10;83.20;;;;;;4967901;28;20575;-83
2021/11/01 04:00:36;;;;;;;18.90;2.80;;;9.00;83.20;;;;;;4970269;28;20051;-82
2021/11/01 04:03:04;;;;;;;18.70;3.20;;;9.00;83.20;;;;;;4970000;28;20109;-82
2021/11/01 04:05:31;;;;;;;14.02;2.13;;;9.00;83.20;;;;;;4958768;28;20047;-82
2021/11/01 04:07:58;;;;;;;11.07;2.30;;;9.00;83.20;;;;;;4963630;28;20098;-82
2021/11/01 04:10:26;;;;;;;16.88;2.67;;;9.00;83.20;;;;;;4967784;28;20062;-83
2021/11/01 04:12:53;;;;;;;19.25;2.35;;;9.00;83.20;;;;;;4967633;28;20493;-82
2021/11/01 04:15:23;;;;;;;14.90;2.25;;;9.00;83.20;;;;;;4971672;28;20054;-82
2021/11/01 04:17:59;;;;;;;19.05;2.20;;;9.00;83.20;;;;;;4969725;28;20050;-81
2021/11/01 04:20:31;;;;;;;17.25;2.33;;;9.00;83.20;;;;;;4969351;28;20046;-81
2021/11/01 04:23:11;;;;;;;12.38;2.08;;;9.00;83.20;;;;;;4967224;28;20109;-82
2021/11/01 04:25:38;;;;;;;16.65;2.35;;;9.00;83.20;;;;;;4967411;28;20078;-82
2021/11/01 04:28:05;;;;;;;11.80;2.58;;;8.90;83.20;;;;;;4967280;28;20047;-83
2021/11/01 04:30:41;;;;;;;19.10;2.35;;;8.90;83.20;;;;;;4970071;28;20105;-82
2021/11/01 04:33:13;;;;;;;17.40;2.55;;;8.90;83.20;;;;;;4970367;28;20101;-81
2021/11/01 04:35:40;;;;;;;16.00;2.50;;;8.90;83.20;;;;;;4968785;28;20190;-81
2021/11/01 04:53:53;;;;;;;14.18;2.20;;;8.90;83.20;;;;;;4969252;28;20051;-81
2021/11/01 04:56:24;;;;;;;17.58;2.38;;;8.90;83.20;;;;;;4965998;28;20066;-82
2021/11/01 04:58:52;;;;;;;13.43;2.13;;;8.90;83.20;;;;;;4965011;28;20043;-82
2021/11/01 05:01:24;;;;;;;15.18;2.47;;;8.90;83.20;;;;;;4966629;28;20043;-82
2021/11/01 05:03:53;;;;;;;14.02;2.28;;;8.90;83.20;;;;;;4966619;28;20047;-81
2021/11/01 05:06:25;;;;;;;13.30;2.05;;;8.90;83.20;;;;;;4968737;28;20066;-81
2021/11/01 05:09:06;;;;;;;17.45;2.05;;;8.90;83.20;;;;;;4968857;28;20050;-82
2021/11/01 05:11:53;;;;;;;11.27;1.77;;;8.90;83.20;;;;;;4957393;28;20509;-82
2021/11/01 05:15:08;;;;;;;16.48;2.45;;;8.80;83.20;;;;;;4968105;28;20081;-82
2021/11/01 05:19:52;;;;;;;13.68;2.15;;;8.80;83.20;;;;;;4959967;28;20059;-82
2021/11/01 05:22:32;;;;;;;11.82;2.08;;;8.80;83.20;;;;;;4965087;28;20106;-82
2021/11/01 05:25:06;;;;;;;12.20;2.13;;;8.80;83.10;;;;;;4966388;28;20114;-82
2021/11/01 05:27:43;;;;;;;12.25;2.00;;;8.80;83.10;;;;;;4968975;28;20463;-81
2021/11/01 05:30:15;;;;;;;12.18;2.33;;;8.80;83.20;;;;;;4969702;28;20055;-80
2021/11/01 05:32:52;;;;;;;17.08;2.33;;;8.70;83.10;;;;;;4968060;28;20055;-81
2021/11/01 05:35:21;;;;;;;13.70;2.00;;;8.80;83.10;;;;;;4967533;28;20051;-82
2021/11/01 05:37:50;;;;;;;10.90;2.08;;;8.70;83.10;;;;;;4964490;28;20054;-82
2021/11/01 05:40:17;;;;;;;12.75;2.10;;;8.70;83.10;;;;;;4966051;28;20047;-80
2021/11/01 05:42:45;;;;;;;10.93;2.20;;;8.70;83.10;;;;;;4967378;28;20508;-81
2021/11/01 05:45:13;;;;;;;11.77;1.73;;;8.60;83.10;;;;;;4969498;28;20059;-82
2021/11/01 05:47:43;;;;;;;12.77;2.55;;;8.70;83.10;;;;;;4967552;28;20388;-82
2021/11/01 05:50:11;;;;;;;16.85;2.72;;;8.70;83.10;;;;;;4970370;28;20050;-82
2021/11/01 05:52:40;;;;;;;11.95;2.47;;;8.60;83.10;;;;;;4965959;28;20277;-81
2021/11/01 06:03:06;;;;;;;16.63;2.78;;;8.60;83.10;;;;;;4974628;28;20109;-82
2021/11/01 06:13:32;;;;;;;13.63;3.80;;;8.60;83.10;;;;;;4972058;28;20062;-81
2021/11/01 06:16:01;;;;;;;11.35;2.80;;;8.60;83.10;;;;;;4970445;28;20043;-82
2021/11/01 06:18:38;;;;;;;12.73;2.53;;;8.60;83.10;;;;;;4975211;28;20050;-81
2021/11/01 06:21:15;;;;;;;15.50;2.88;;;8.50;83.10;;;;;;4974922;28;20105;-82
2021/11/01 06:23:53;;;;;;;9.32;1.95;;;8.50;83.00;;;;;;4974086;28;20119;-82
2021/11/01 06:26:21;;;;;;;11.85;2.00;;;8.50;83.00;;;;;;4971483;28;20054;-81
2021/11/01 06:28:52;;;;;;;9.32;2.20;;;8.50;83.00;;;;;;4972187;28;20043;-82
2021/11/01 06:31:27;;;;;;;9.13;1.90;;;8.50;83.00;;;;;;4971694;28;20542;-82
2021/11/01 06:56:02;;;;;;;8.18;1.92;;;8.40;82.90;;;;;;4941669;28;20614;-82
2021/11/01 06:58:36;;;;;;;12.20;1.70;;;8.40;82.90;;;;;;4941980;28;20587;-80
2021/11/01 07:20:06;;;;;;;10.00;1.73;;;8.40;82.90;;;;;;4942073;29;20051;-82
2021/11/01 07:29:56;;;;;;;8.90;1.88;;;8.40;82.90;;;;;;4965550;28;20047;-82
2021/11/01 08:21:08;;;;;;;12.95;2.70;;;8.60;83.10;;;;;;4970111;28;20455;-82
2021/11/01 08:26:34;;;;;;;15.35;2.40;;;8.60;83.20;;;;;;4965329;28;20393;-82
2021/11/01 08:29:10;;;;;;;8.70;2.75;;;8.60;83.20;;;;;;4968305;28;20050;-81
2021/11/01 09:03:56;;;;;;;13.15;2.22;;;9.00;83.60;;;;;;4921710;29;20055;-82
2021/11/01 09:20:16;;;;;;;8.15;1.63;;;9.30;83.80;;;;;;4913239;29;20059;-82
2021/11/01 09:36:20;;;;;;;11.98;2.00;;;9.70;83.90;;;;;;4914727;29;20048;-83
2021/11/01 09:38:57;;;;;;;12.65;2.03;;;9.90;83.80;;;;;;4928643;29;20056;-82
2021/11/01 09:41:26;;;;;;;9.93;1.40;;;9.90;83.80;;;;;;4929615;29;20548;-82
2021/11/01 09:43:59;;;;;;;14.35;2.47;;;10.00;83.70;;;;;;4931495;29;20051;-83
2021/11/01 09:46:29;;;;;;;16.17;2.17;;;10.10;83.60;;;;;;4934940;29;20055;-83
2021/11/01 09:49:18;;;;;;;11.23;1.98;;;10.20;83.50;;;;;;4941579;29;20575;-84
2021/11/01 09:51:47;;;;;;;15.02;2.10;;;10.20;83.40;;;;;;4931013;29;20115;-82
2021/11/01 09:54:21;;;;;;;14.10;2.30;;;10.30;83.30;;;;;;4930810;29;20055;-84
2021/11/01 09:57:03;;;;;;;12.23;2.20;;;10.40;83.10;;;;;;4940048;29;20106;-82
2021/11/01 09:59:36;;;;;;;12.55;1.65;;;10.40;83.00;;;;;;4969188;28;20398;-82
2021/11/01 10:02:05;;;;;;;;;;;10.40;82.90;;;;;;4960804;28;20051;-82
2021/11/01 10:04:34;;;;;;;9.57;1.27;;;10.50;82.90;;;;;;4956850;28;19938;-82
2021/11/01 10:07:22;;;;;;;7.85;1.35;;;10.60;82.80;;;;;;4958840;28;20051;-83
2021/11/01 10:09:58;;;;;;;11.75;1.92;;;10.70;82.70;;;;;;4958573;28;20047;-82
2021/11/01 10:12:30;;;;;;;9.38;1.88;;;10.90;82.60;;;;;;4955711;28;20043;-83
2021/11/01 10:17:56;;;;;;;11.88;1.88;;;11.10;82.30;;;;;;4968379;28;20051;-83
2021/11/01 10:20:23;;;;;;;16.15;2.53;;;11.40;82.00;;;;;;4968600;28;20097;-83
2021/11/01 10:22:50;;;;;;;15.55;2.10;;;11.40;81.80;;;;;;4960532;28;20134;-82
2021/11/01 10:25:20;;;;;;;10.70;1.83;;;11.50;81.60;;;;;;4957945;28;20522;-83
2021/11/01 10:28:07;;;;;;;9.90;2.03;;;11.70;81.40;;;;;;4957087;28;20042;-84
2021/11/01 10:30:36;;;;;;;8.88;1.83;;;11.80;81.10;;;;;;4955184;28;20039;-84
2021/11/01 10:33:06;;;;;;;9.85;1.70;;;11.90;80.80;;;;;;4955330;28;20051;-83
2021/11/01 10:35:36;;;;;;;11.10;1.58;;;12.10;80.60;;;;;;4957690;28;20051;-83
2021/11/01 10:41:00;;;;;;;8.07;1.65;;;12.30;80.00;;;;;;4957695;28;20059;-84
2021/11/01 11:14:24;;;;;;;10.63;2.60;;;13.40;76.20;;;;;;4960491;28;20059;-86
2021/11/01 11:21:42;;;;;;;15.15;2.30;;;13.40;75.90;;;;;;4956917;28;20110;-85
2021/11/01 11:30:00;;;;;;;10.00;2.00;;;13.40;75.40;;;;;;4960439;28;20500;-85
2021/11/01 11:49:16;;;;;;;10.02;1.55;;;13.10;75.10;;;;;;4967435;28;20139;-84
2021/11/01 11:52:03;;;;;;;8.65;1.50;;;13.10;75.10;;;;;;4968336;28;20516;-85
2021/11/01 11:54:47;;;;;;;9.10;1.75;;;13.00;75.10;;;;;;4955852;28;20046;-83
2021/11/01 11:57:21;;;;;;;8.73;1.90;;;13.00;75.20;;;;;;4970992;28;20109;-83
2021/11/01 11:59:51;;;;;;;5.88;1.65;;;12.90;75.20;;;;;;4972520;28;20054;-84
2021/11/01 12:02:38;;;;;;;9.95;2.00;;;12.90;75.20;;;;;;4967859;28;20059;-83
2021/11/01 12:05:26;;;;;;;8.50;2.03;;;12.90;75.30;;;;;;4966850;28;20574;-84
2021/11/01 12:08:02;;;;;;;7.75;1.95;;;12.80;75.40;;;;;;4967045;28;20105;-84
2021/11/01 12:11:31;;;;;;;8.65;1.90;;;12.80;75.40;;;;;;4967062;28;20439;-85
2021/11/01 12:18:56;;;;;;;10.70;1.95;;;12.70;75.50;;;;;;4959595;28;20089;-85
2021/11/01 12:21:23;;;;;;;9.27;2.33;;;12.60;75.60;;;;;;4955171;28;20061;-86
2021/11/01 12:23:54;;;;;;;9.63;2.35;;;12.60;75.70;;;;;;4959087;28;20066;-86
2021/11/01 12:26:24;;;;;;;9.15;1.52;;;12.60;75.80;;;;;;4960212;28;20043;-86
2021/11/01 12:28:56;;;;;;;5.15;1.42;;;12.60;75.80;;;;;;4965577;28;20058;-87
2021/11/01 12:31:24;;;;;;;4.15;1.42;;;12.60;75.70;;;;;;4966126;28;20047;-86
2021/11/01 12:34:36;;;;;;;8.00;1.42;;;12.70;75.50;;;;;;4958586;28;20050;-84
2021/11/01 12:37:00;;;;;;;6.45;1.48;;;12.70;75.50;;;;;;4954243;28;20130;-85
2021/11/01 12:39:34;;;;;;;8.32;1.83;;;12.70;75.40;;;;;;4956258;28;20058;-86
2021/11/01 12:58:56;;;;;;;8.45;1.80;;;12.80;74.30;;;;;;4966629;28;20063;-85
2021/11/01 13:01:28;;;;;;;11.35;1.98;;;12.80;74.20;;;;;;4965869;28;20054;-85
2021/11/01 13:04:10;;;;;;;8.38;1.90;;;12.80;74.20;;;;;;4958485;28;20615;-85
2021/11/01 13:09:29;;;;;;;5.68;1.50;;;12.80;74.10;;;;;;4955659;28;20196;-84
2021/11/01 13:19:49;;;;;;;9.27;1.63;;;12.90;74.10;;;;;;4957692;28;20047;-85
2021/11/01 13:22:31;;;;;;;8.10;1.50;;;12.90;74.10;;;;;;4957255;28;20166;-86
2021/11/01 13:38:45;;;;;;;6.97;1.70;;;13.20;73.10;;;;;;4894876;29;20057;-85
2021/11/01 13:41:19;;;;;;;10.68;1.85;;;13.20;73.00;;;;;;4893601;29;20522;-85
2021/11/01 13:43:46;;;;;;;;;;;13.20;72.90;;;;;;4893695;29;20061;-84
2021/11/01 13:46:15;;;;;;;7.97;1.50;;;13.20;72.80;;;;;;4893115;29;20393;-85
2021/11/01 13:48:42;;;;;;;5.07;1.25;;;13.20;72.80;;;;;;4893662;29;20057;-83
2021/11/01 13:51:11;;;;;;;8.10;1.30;;;13.20;72.80;;;;;;4893263;29;20430;-83
2021/11/01 13:53:59;;;;;;;4.85;1.30;;;13.10;72.80;;;;;;4893673;29;20049;-82
2021/11/01 13:56:36;;;;;;;8.32;2.03;;;13.10;72.90;;;;;;4893555;29;20052;-82
2021/11/01 13:59:20;;;;;;;8.88;1.70;;;13.10;73.00;;;;;;4892830;29;20092;-83
2021/11/01 15:15:44;;;;;;;5.90;3.03;;;10.70;78.50;;;;;;4936931;29;20044;-81
2021/11/01 15:27:01;;;;;;;5.60;2.90;;;10.50;79.20;;;;;;4918003;29;20357;-82
2021/11/01 15:35:15;;;;;;;6.50;2.42;;;10.50;79.60;;;;;;4915496;29;20095;-82
2021/11/01 16:19:08;;;;;;;5.00;2.10;;;10.10;80.50;;;;;;4891715;29;20145;-82
2021/11/01 16:21:36;;;;;;;5.97;2.35;;;10.00;80.40;;;;;;4892283;29;20558;-83
2021/11/01 16:24:03;;;;;;;5.25;2.25;;;10.00;80.50;;;;;;4894213;29;20530;-83
2021/11/01 16:26:33;;;;;;;8.25;2.47;;;10.00;80.50;;;;;;4959754;28;20109;-82
2021/11/01 16:29:09;;;;;;;4.68;2.40;;;9.90;80.50;;;;;;4967358;28;20055;-82
2021/11/01 16:31:55;;;;;;;5.15;2.08;;;9.90;80.50;;;;;;4965132;28;20043;-82
2021/11/01 16:34:30;;;;;;;5.13;2.10;;;9.90;80.50;;;;;;4960721;28;20050;-82
2021/11/01 16:37:11;;;;;;;6.15;2.70;;;9.90;80.50;;;;;;4959803;28;20101;-82
2021/11/01 16:42:06;;;;;;;6.15;2.35;;;9.80;80.50;;;;;;4955683;28;20051;-82
2021/11/01 16:44:38;;;;;;;5.32;2.22;;;9.70;80.50;;;;;;4959087;28;20059;-82
2021/11/01 16:47:05;;;;;;;5.18;2.13;;;9.70;80.50;;;;;;4960107;28;20069;-82
2021/11/01 16:49:32;;;;;;;3.85;1.88;;;9.70;80.60;;;;;;4958716;28;20595;-82
2021/11/01 16:52:07;;;;;;;4.95;2.08;;;9.60;80.60;;;;;;4959161;28;20117;-83
2021/11/01 16:54:36;;;;;;;5.43;2.30;;;9.60;80.60;;;;;;4956179;28;20050;-82
2021/11/01 16:57:32;;;;;;;4.47;1.98;;;9.60;80.60;;;;;;4953968;28;20105;-82
2021/11/01 17:02:38;;;;;;;7.28;2.65;;;9.50;80.70;;;;;;4959156;28;20062;-83
2021/11/01 18:42:30;;;;;;;5.78;3.20;;;8.80;81.70;;;;;;4955673;28;20107;-82
2021/11/01 18:51:02;;;;;;;6.15;3.50;;;8.80;81.80;;;;;;4970532;28;20042;-82
2021/11/01 18:53:35;;;;;;;6.88;3.72;;;8.80;81.80;;;;;;4959387;28;20063;-82
2021/11/01 18:56:05;;;;;;;8.85;4.38;;;8.80;81.90;;;;;;4957122;28;20496;-82
2021/11/01 18:58:34;;;;;;;9.15;5.07;;;8.80;81.90;;;;;;4957885;28;20046;-82
2021/11/01 19:01:04;;;;;;;8.70;4.40;;;8.80;81.90;;;;;;4957501;28;20486;-82
2021/11/01 19:03:36;;;;;;;9.05;4.40;;;8.80;81.90;;;;;;4955914;28;20059;-82
2021/11/01 19:06:17;;;;;;;7.70;3.58;;;8.80;82.00;;;;;;4958421;28;20047;-82
2021/11/01 20:10:53;;;;;;;7.13;3.00;;;8.80;82.90;;;;;;4958788;28;20053;-83
2021/11/01 21:25:51;;;;;;;8.27;3.85;;;8.40;83.00;;;;;;4958568;28;20460;-83
2021/11/01 21:28:19;;;;;;;7.55;3.88;;;8.40;82.90;;;;;;4958200;28;20050;-83
2021/11/01 21:30:47;;;;;;;6.93;3.65;;;8.40;82.90;;;;;;4968710;28;20459;-82
2021/11/01 21:33:21;;;;;;;9.70;4.45;;;8.40;82.90;;;;;;4953967;28;20066;-83
2021/11/01 21:35:52;;;;;;;8.60;4.10;;;8.40;82.90;;;;;;4958349;28;20106;-82
2021/11/01 21:38:20;;;;;;;9.05;4.20;;;8.40;82.90;;;;;;4960083;28;20496;-83
2021/11/01 21:40:48;;;;;;;7.55;3.92;;;8.40;82.90;;;;;;4958277;28;20452;-83
2021/11/01 21:43:15;;;;;;;8.52;4.05;;;8.30;82.80;;;;;;4959587;28;20043;-82
2021/11/01 21:45:44;;;;;;;9.55;4.50;;;8.40;82.80;;;;;;4955852;28;20428;-83
2021/11/01 21:48:11;;;;;;;9.23;4.03;;;8.30;82.80;;;;;;4955347;28;20051;-84
2021/11/01 21:50:41;;;;;;;7.93;3.50;;;8.30;82.80;;;;;;4958260;28;20080;-83
2021/11/01 21:53:08;;;;;;;7.10;3.80;;;8.30;82.80;;;;;;4957801;28;20043;-83
2021/11/01 21:55:36;;;;;;;7.63;3.90;;;8.30;82.80;;;;;;4958069;28;20051;-82
2021/11/01 22:01:21;;;;;;;6.78;3.25;;;8.30;82.80;;;;;;4955674;28;20051;-83
2021/11/01 22:17:41;;;;;;;6.15;2.85;;;8.20;82.90;;;;;;4958625;28;20066;-83
2021/11/01 22:25:09;;;;;;;6.70;2.88;;;8.20;82.90;;;;;;4957705;28;20070;-83
2021/11/01 22:33:14;;;;;;;5.70;2.90;;;8.20;83.00;;;;;;4967720;28;20051;-83
2021/11/01 22:55:33;;;;;;;5.93;3.13;;;8.20;83.20;;;;;;4960258;28;20194;-83
2021/11/01 22:57:12;;;;;;;7.07;2.92;;;8.10;83.20;;;;;;4971558;28;20121;-83
2021/11/01 22:59:39;;;;;;;6.25;2.88;;;8.20;83.30;;;;;;4972432;28;20109;-83
2021/11/01 23:02:07;;;;;;;4.95;2.83;;;8.10;83.30;;;;;;4971633;28;20051;-83
2021/11/01 23:32:32;;;;;;;7.65;3.85;;;8.20;83.90;;;;;;4959054;28;20093;-83
2021/11/01 23:34:59;;;;;;;6.97;3.85;;;8.20;83.90;;;;;;4963231;28;20721;-82
2021/11/01 23:37:26;;;;;;;8.07;3.72;;;8.30;83.90;;;;;;4963286;28;20046;-83
2021/11/01 23:39:52;;;;;;;10.10;3.78;;;8.20;83.90;;;;;;4957573;28;20051;-83
2021/11/01 23:42:19;;;;;;;9.43;3.72;;;8.30;84.00;;;;;;4972224;28;20059;-83
2021/11/01 23:44:46;;;;;;;7.20;3.50;;;8.30;84.00;;;;;;4969758;28;20078;-83
2021/11/01 23:47:14;;;;;;;7.95;3.78;;;8.30;84.00;;;;;;4968147;28;20459;-83
2021/11/01 23:49:40;;;;;;;9.30;3.50;;;8.30;84.00;;;;;;4967026;28;20650;-83
2021/11/01 23:52:13;;;;;;;8.43;3.63;;;8.30;84.00;;;;;;4968089;28;20051;-83
2021/11/01 23:54:43;;;;;;;8.95;4.22;;;8.30;84.00;;;;;;4970352;28;20043;-83
2021/11/01 23:57:15;;;;;;;12.75;3.67;;;8.30;84.00;;;;;;4970769;28;20050;-83
2021/11/01 23:59:47;;;;;;;8.68;4.15;;;8.30;84.00;;;;;;4969814;28;20046;-82
